Time;durP1;ratioP1;P1;durP2;ratioP2;P2;SDS_P1;SDS_P2;PMS_P1;PMS_P2;Temp;Humidity;BMP_temperature;BMP_pressure;BME280_temperature;BME280_humidity;BME280_pressure;Samples;Min_cycle;Max_cycle;Signal;HPM_P1;HPM_P2
2023/02/10 00:01:33;;;;;;;43.60;18.60;;;1.90;99.90;;;;;;5096283;28;25096;-78
2023/02/10 00:04:01;;;;;;;47.65;17.77;;;1.90;99.90;;;;;;5096546;28;25118;-78
2023/02/10 00:06:28;;;;;;;44.67;19.23;;;1.90;99.90;;;;;;5096236;28;25102;-79
2023/02/10 00:08:57;;;;;;;43.63;17.05;;;2.00;99.90;;;;;;5078294;28;25053;-78
2023/02/10 00:14:14;;;;;;;44.60;17.63;;;2.00;99.90;;;;;;5098514;28;25116;-78
2023/02/10 00:16:41;;;;;;;46.50;18.10;;;2.00;99.90;;;;;;5100257;28;25137;-78
2023/02/10 00:19:08;;;;;;;40.28;17.55;;;2.00;99.90;;;;;;5100170;28;25076;-78
2023/02/10 00:21:36;;;;;;;39.13;16.58;;;2.00;99.90;;;;;;5100110;28;25123;-78
2023/02/10 00:24:04;;;;;;;45.83;18.67;;;2.00;99.90;;;;;;5082274;28;25091;-78
2023/02/10 00:26:31;;;;;;;42.47;17.67;;;2.00;99.90;;;;;;5100312;28;25116;-78
2023/02/10 00:28:59;;;;;;;39.72;16.50;;;2.00;99.90;;;;;;5100260;28;25133;-78
2023/02/10 00:31:26;;;;;;;39.13;16.80;;;2.00;99.90;;;;;;5078362;28;25094;-78
2023/02/10 00:33:54;;;;;;;38.60;17.33;;;2.00;99.90;;;;;;5078638;28;25073;-78
2023/02/10 00:36:21;;;;;;;47.08;19.38;;;2.00;99.90;;;;;;5078379;28;25068;-78
2023/02/10 00:38:49;;;;;;;45.50;19.38;;;1.90;99.90;;;;;;5079546;28;25114;-78
2023/02/10 00:41:19;;;;;;;43.00;17.90;;;1.90;99.90;;;;;;5079465;28;25150;-78
2023/02/10 00:43:47;;;;;;;41.55;18.27;;;1.90;99.90;;;;;;5079408;28;25104;-78
2023/02/10 00:46:16;;;;;;;39.35;18.50;;;1.90;99.90;;;;;;5079370;28;25145;-78
2023/02/10 00:48:45;;;;;;;47.00;18.70;;;1.90;99.90;;;;;;5078256;28;25066;-78
2023/02/10 00:51:13;;;;;;;47.35;18.90;;;1.90;99.90;;;;;;5079853;28;25103;-78
2023/02/10 00:53:41;;;;;;;47.53;18.77;;;1.90;99.90;;;;;;5078185;28;25065;-78
2023/02/10 00:56:09;;;;;;;52.13;19.27;;;1.90;99.90;;;;;;5079513;28;25061;-78
2023/02/10 00:58:37;;;;;;;52.03;18.35;;;1.90;99.90;;;;;;5079421;28;25063;-78
2023/02/10 01:01:05;;;;;;;48.03;18.85;;;1.90;99.90;;;;;;5078079;28;25069;-78
2023/02/10 01:03:33;;;;;;;41.22;18.17;;;1.80;99.90;;;;;;5079308;28;25072;-78
2023/02/10 01:06:00;;;;;;;47.30;18.40;;;1.80;99.90;;;;;;5078131;28;25070;-78
2023/02/10 01:08:28;;;;;;;48.90;19.33;;;1.80;99.90;;;;;;5078945;28;25066;-78
2023/02/10 01:11:05;;;;;;;46.60;18.27;;;1.80;99.90;;;;;;5079240;28;25100;-78
2023/02/10 01:13:35;;;;;;;46.88;19.95;;;1.80;99.90;;;;;;5078050;28;25049;-78
2023/02/10 01:16:09;;;;;;;42.33;18.20;;;1.80;99.90;;;;;;5077674;28;25067;-78
2023/02/10 01:18:38;;;;;;;49.10;19.25;;;1.80;99.90;;;;;;5077564;28;25060;-79
2023/02/10 01:21:10;;;;;;;46.85;18.40;;;1.70;99.90;;;;;;5077650;28;25062;-78
2023/02/10 01:23:37;;;;;;;45.22;19.38;;;1.80;99.90;;;;;;5078648;28;25070;-78
2023/02/10 01:26:05;;;;;;;46.92;18.73;;;1.70;99.90;;;;;;5077835;28;25147;-78
2023/02/10 01:28:32;;;;;;;45.53;19.60;;;1.80;99.90;;;;;;5077665;28;25121;-78
2023/02/10 01:31:05;;;;;;;50.15;18.60;;;1.80;99.90;;;;;;5077645;28;25097;-78
2023/02/10 01:33:32;;;;;;;39.10;17.48;;;1.70;99.90;;;;;;5077278;28;25056;-78
2023/02/10 01:36:08;;;;;;;47.63;19.60;;;1.80;99.90;;;;;;5078694;28;25055;-78
2023/02/10 01:38:36;;;;;;;43.05;17.77;;;1.80;99.90;;;;;;5078388;28;25056;-78
2023/02/10 01:41:05;;;;;;;41.80;18.48;;;1.80;99.90;;;;;;5078490;28;25073;-78
2023/02/10 01:43:33;;;;;;;47.95;20.52;;;1.90;99.90;;;;;;5078326;28;25059;-78
2023/02/10 01:46:01;;;;;;;48.15;18.92;;;1.90;99.90;;;;;;5077689;28;25141;-78
2023/02/10 01:48:28;;;;;;;42.60;19.35;;;1.90;99.90;;;;;;5060626;28;25091;-78
2023/02/10 01:51:05;;;;;;;49.63;18.15;;;1.90;99.90;;;;;;5058722;28;25141;-78
2023/02/10 01:53:32;;;;;;;44.97;18.92;;;1.90;99.90;;;;;;5078370;28;25060;-78
2023/02/10 01:56:02;;;;;;;45.40;18.23;;;1.90;99.90;;;;;;5078313;28;25092;-78
2023/02/10 01:58:33;;;;;;;46.35;19.80;;;1.90;99.90;;;;;;5077987;28;25070;-78
2023/02/10 02:01:01;;;;;;;48.17;20.98;;;1.80;99.90;;;;;;5078102;28;25065;-78
2023/02/10 02:03:28;;;;;;;44.80;21.27;;;1.80;99.90;;;;;;5060091;28;25060;-78
2023/02/10 02:05:55;;;;;;;40.55;16.90;;;1.80;99.90;;;;;;5060145;28;25115;-78
2023/02/10 02:08:28;;;;;;;43.83;20.38;;;1.90;99.90;;;;;;5078049;28;25121;-78
2023/02/10 02:11:21;;;;;;;46.17;21.20;;;1.90;99.90;;;;;;5060143;28;25057;-78
2023/02/10 02:14:18;;;;;;;45.97;20.13;;;2.00;99.90;;;;;;5059943;28;25101;-78
2023/02/10 02:16:58;;;;;;;47.25;20.05;;;2.00;99.90;;;;;;5059888;28;25065;-78
2023/02/10 02:19:47;;;;;;;49.67;18.98;;;2.00;99.90;;;;;;5078023;28;25139;-78
2023/02/10 02:22:58;;;;;;;46.17;19.45;;;2.00;99.90;;;;;;5059743;28;25071;-78
2023/02/10 02:25:53;;;;;;;44.33;20.00;;;2.10;99.90;;;;;;5077744;28;25081;-78
2023/02/10 02:28:48;;;;;;;47.15;19.10;;;2.10;99.90;;;;;;5059611;28;25103;-78
2023/02/10 02:31:59;;;;;;;44.67;19.50;;;2.00;99.90;;;;;;5079262;28;25101;-78
2023/02/10 02:35:02;;;;;;;41.42;19.58;;;2.00;99.90;;;;;;5097807;28;25052;-78
2023/02/10 02:37:43;;;;;;;42.28;18.08;;;2.00;99.90;;;;;;5096760;28;25124;-78
2023/02/10 02:40:13;;;;;;;52.17;20.85;;;2.00;99.90;;;;;;5097456;28;25068;-77
2023/02/10 02:42:40;;;;;;;43.78;18.73;;;2.00;99.90;;;;;;5079407;28;25069;-78
2023/02/10 02:45:13;;;;;;;45.00;21.15;;;1.90;99.90;;;;;;5079571;28;25101;-78
2023/02/10 02:48:09;;;;;;;50.25;22.50;;;1.90;99.90;;;;;;5097619;28;25097;-78
2023/02/10 02:50:42;;;;;;;43.85;19.42;;;1.80;99.90;;;;;;5097351;28;25072;-78
2023/02/10 02:53:41;;;;;;;47.65;19.67;;;1.80;99.90;;;;;;5097482;28;25061;-79
2023/02/10 02:56:42;;;;;;;45.55;20.70;;;1.70;99.90;;;;;;5079342;28;25085;-78
2023/02/10 02:59:24;;;;;;;46.10;19.00;;;1.70;99.90;;;;;;5096693;28;25103;-78
2023/02/10 03:02:03;;;;;;;43.97;19.58;;;1.60;99.90;;;;;;5097107;28;25073;-78
2023/02/10 03:04:35;;;;;;;39.60;17.98;;;1.60;99.90;;;;;;5079230;28;25100;-78
2023/02/10 03:07:03;;;;;;;50.13;19.40;;;1.50;99.90;;;;;;5097001;28;25060;-78
2023/02/10 03:09:31;;;;;;;39.70;18.80;;;1.50;99.90;;;;;;5079040;28;25076;-78
2023/02/10 03:11:58;;;;;;;41.63;18.67;;;1.50;99.90;;;;;;5078978;28;25052;-78
2023/02/10 03:14:25;;;;;;;45.75;19.33;;;1.50;99.90;;;;;;5096998;28;25073;-78
2023/02/10 03:16:53;;;;;;;40.47;18.85;;;1.50;99.90;;;;;;5078824;28;25101;-78
2023/02/10 03:19:20;;;;;;;46.63;20.15;;;1.40;99.90;;;;;;5097102;28;25057;-78
2023/02/10 03:21:48;;;;;;;44.20;18.30;;;1.40;99.90;;;;;;5078817;28;25064;-78
2023/02/10 03:24:16;;;;;;;41.65;18.50;;;1.50;99.90;;;;;;5078902;28;25118;-78
2023/02/10 03:26:44;;;;;;;39.25;17.60;;;1.40;99.90;;;;;;5096953;28;25083;-78
2023/02/10 03:29:12;;;;;;;48.78;19.08;;;1.40;99.90;;;;;;5078763;28;25095;-78
2023/02/10 03:31:40;;;;;;;53.97;19.70;;;1.40;99.90;;;;;;5075111;28;25081;-78
2023/02/10 03:34:08;;;;;;;40.78;18.48;;;1.40;99.90;;;;;;5075430;28;25117;-78
2023/02/10 03:36:35;;;;;;;41.08;18.75;;;1.40;99.90;;;;;;5075291;28;25058;-78
2023/02/10 03:39:04;;;;;;;47.15;19.60;;;1.40;99.90;;;;;;5075503;28;25102;-78
2023/02/10 03:41:32;;;;;;;45.58;19.75;;;1.40;99.90;;;;;;5076618;28;25152;-78
2023/02/10 03:43:59;;;;;;;44.72;19.98;;;1.40;99.90;;;;;;5075243;28;25078;-78
2023/02/10 03:46:26;;;;;;;56.65;21.02;;;1.40;99.90;;;;;;5076512;28;25102;-78
2023/02/10 03:48:53;;;;;;;45.53;20.73;;;1.40;99.90;;;;;;5075823;28;25135;-78
2023/02/10 03:51:20;;;;;;;52.50;20.58;;;1.50;99.90;;;;;;5074016;28;25069;-78
2023/02/10 03:53:48;;;;;;;36.72;16.48;;;1.40;99.90;;;;;;5075057;28;25158;-78
2023/02/10 03:56:15;;;;;;;43.05;18.50;;;1.50;99.90;;;;;;5076346;28;25107;-78
2023/02/10 03:58:42;;;;;;;42.42;19.02;;;1.50;99.90;;;;;;5075048;28;25078;-78
2023/02/10 04:01:14;;;;;;;42.72;19.13;;;1.50;99.90;;;;;;5075152;28;25076;-78
2023/02/10 04:03:43;;;;;;;50.38;19.40;;;1.50;99.90;;;;;;5075282;28;25084;-78
2023/02/10 04:06:10;;;;;;;46.08;18.90;;;1.60;99.90;;;;;;5076319;28;25059;-78
2023/02/10 04:08:38;;;;;;;46.67;19.92;;;1.60;99.90;;;;;;5074993;28;25100;-78
2023/02/10 04:11:07;;;;;;;46.22;19.55;;;1.60;99.90;;;;;;5076237;28;25103;-78
2023/02/10 04:13:35;;;;;;;48.05;19.58;;;1.50;99.90;;;;;;5075101;28;25056;-79
2023/02/10 04:16:09;;;;;;;48.33;18.63;;;1.60;99.90;;;;;;5075909;28;25084;-78
2023/02/10 04:18:38;;;;;;;50.28;21.27;;;1.60;99.90;;;;;;5075958;28;25072;-78
2023/02/10 04:21:07;;;;;;;55.35;21.83;;;1.60;99.90;;;;;;5074857;28;25118;-78
2023/02/10 04:23:35;;;;;;;51.97;19.50;;;1.60;99.90;;;;;;5076038;28;25072;-78
2023/02/10 04:26:03;;;;;;;46.92;19.52;;;1.60;99.90;;;;;;5075904;28;25112;-78
2023/02/10 04:28:30;;;;;;;52.63;21.10;;;1.60;99.90;;;;;;5076192;28;25105;-78
2023/02/10 04:30:59;;;;;;;43.58;20.00;;;1.60;99.90;;;;;;5074757;28;25129;-78
2023/02/10 04:33:27;;;;;;;39.67;18.75;;;1.70;99.90;;;;;;5074637;28;25086;-78
2023/02/10 04:35:55;;;;;;;48.28;19.38;;;1.60;99.90;;;;;;5074665;28;25051;-78
2023/02/10 04:38:23;;;;;;;53.15;21.00;;;1.70;99.90;;;;;;5074747;28;25126;-78
2023/02/10 04:40:51;;;;;;;48.22;19.63;;;1.70;99.90;;;;;;5076025;28;25062;-78
2023/02/10 04:43:18;;;;;;;46.35;19.08;;;1.70;99.90;;;;;;5074672;28;25103;-78
2023/02/10 04:45:45;;;;;;;43.28;19.15;;;1.70;99.90;;;;;;5074798;28;25116;-78
2023/02/10 04:48:16;;;;;;;47.08;22.75;;;1.70;99.90;;;;;;5075958;28;25075;-78
2023/02/10 04:50:44;;;;;;;57.80;20.45;;;1.70;99.90;;;;;;5074571;28;25118;-78
2023/02/10 04:53:11;;;;;;;45.05;19.83;;;1.70;99.90;;;;;;5074535;28;25057;-78
2023/02/10 04:55:38;;;;;;;48.35;20.45;;;1.80;99.90;;;;;;5074650;28;25117;-78
2023/02/10 04:58:06;;;;;;;46.25;19.85;;;1.70;99.90;;;;;;5072732;28;25057;-78
2023/02/10 05:00:33;;;;;;;51.10;19.60;;;1.70;99.90;;;;;;5076626;28;25060;-78
2023/02/10 05:03:01;;;;;;;46.15;18.90;;;1.70;99.90;;;;;;5079353;28;25065;-78
2023/02/10 05:05:28;;;;;;;49.47;19.67;;;1.70;99.90;;;;;;5079496;28;25111;-78
2023/02/10 05:07:56;;;;;;;43.45;19.50;;;1.70;99.90;;;;;;5077924;28;25059;-78
2023/02/10 05:10:24;;;;;;;53.17;20.05;;;1.70;99.90;;;;;;5079313;28;25114;-78
2023/02/10 05:12:52;;;;;;;45.45;19.13;;;1.70;99.90;;;;;;5077783;28;25069;-78
2023/02/10 05:15:19;;;;;;;45.78;19.30;;;1.70;99.90;;;;;;5076903;28;25076;-78
2023/02/10 05:17:46;;;;;;;49.75;20.48;;;1.80;99.90;;;;;;5079100;28;25085;-78
2023/02/10 05:20:13;;;;;;;43.85;19.73;;;1.80;99.90;;;;;;5078795;28;25092;-78
2023/02/10 05:22:41;;;;;;;39.00;18.52;;;1.80;99.90;;;;;;5079020;28;25065;-78
2023/02/10 05:25:08;;;;;;;45.22;18.50;;;1.80;99.90;;;;;;5077629;28;25091;-78
2023/02/10 05:27:36;;;;;;;45.28;18.98;;;1.80;99.90;;;;;;5077532;28;25062;-78
2023/02/10 05:30:06;;;;;;;43.40;18.50;;;1.80;99.90;;;;;;5077596;28;25070;-78
2023/02/10 05:32:34;;;;;;;48.38;20.17;;;1.90;99.90;;;;;;5090846;28;25053;-78
2023/02/10 05:35:01;;;;;;;55.03;19.23;;;1.90;99.90;;;;;;5099015;28;25114;-78
2023/02/10 05:37:29;;;;;;;51.35;20.33;;;1.90;99.90;;;;;;5080723;28;25064;-79
2023/02/10 05:39:56;;;;;;;49.08;20.83;;;1.90;99.90;;;;;;5080824;28;25050;-78
2023/02/10 05:42:23;;;;;;;52.58;22.55;;;1.90;99.90;;;;;;5098594;28;25113;-78
2023/02/10 05:44:50;;;;;;;48.78;20.95;;;1.90;99.90;;;;;;5080615;28;25073;-78
2023/02/10 05:47:17;;;;;;;51.83;20.00;;;1.90;99.90;;;;;;5080570;28;25099;-78
2023/02/10 05:49:44;;;;;;;51.05;20.85;;;1.90;99.90;;;;;;5098683;28;25057;-78
2023/02/10 05:52:12;;;;;;;53.80;20.58;;;1.90;99.90;;;;;;5080486;28;25114;-78
2023/02/10 05:54:42;;;;;;;46.00;19.30;;;1.90;99.90;;;;;;5080368;28;25055;-78
2023/02/10 05:57:10;;;;;;;47.28;19.55;;;1.90;99.90;;;;;;5080354;28;25068;-78
2023/02/10 05:59:37;;;;;;;49.47;20.50;;;1.90;99.90;;;;;;5080469;28;25056;-78
2023/02/10 06:02:04;;;;;;;45.90;20.83;;;1.90;99.90;;;;;;5080279;28;25131;-78
2023/02/10 06:04:32;;;;;;;52.60;21.15;;;1.90;99.90;;;;;;5098196;28;25098;-78
2023/02/10 06:07:00;;;;;;;49.42;20.60;;;1.90;99.90;;;;;;5098438;28;25073;-78
2023/02/10 06:09:27;;;;;;;50.30;20.90;;;1.90;99.90;;;;;;5080256;28;25064;-78
2023/02/10 06:11:55;;;;;;;49.20;21.77;;;1.90;99.90;;;;;;5098000;28;25051;-78
2023/02/10 06:14:22;;;;;;;55.22;21.88;;;1.90;99.90;;;;;;5079940;28;25056;-78
2023/02/10 06:16:50;;;;;;;52.20;21.63;;;1.90;99.90;;;;;;5079497;28;25121;-78
2023/02/10 06:19:18;;;;;;;55.45;22.30;;;1.90;99.90;;;;;;5080389;28;25094;-78
2023/02/10 06:21:45;;;;;;;54.30;23.08;;;1.90;99.90;;;;;;5079876;28;25119;-78
2023/02/10 06:24:13;;;;;;;57.10;23.63;;;1.90;99.90;;;;;;5098131;28;25063;-78
2023/02/10 06:26:41;;;;;;;56.70;25.20;;;2.00;99.90;;;;;;5079806;28;25074;-78
2023/02/10 06:29:08;;;;;;;66.93;26.75;;;2.00;99.90;;;;;;5098175;28;25120;-78
2023/02/10 06:31:36;;;;;;;59.80;24.08;;;2.00;99.90;;;;;;5097732;28;25051;-78
2023/02/10 06:34:03;;;;;;;57.70;22.70;;;2.00;99.90;;;;;;5079665;28;25128;-78
2023/02/10 06:36:30;;;;;;;69.63;25.70;;;2.00;99.90;;;;;;5097490;28;25064;-78
2023/02/10 06:38:57;;;;;;;70.30;26.85;;;2.10;99.90;;;;;;5079557;28;24893;-78
2023/02/10 06:41:24;;;;;;;60.92;27.05;;;2.10;99.90;;;;;;5097760;28;25076;-77
2023/02/10 06:43:51;;;;;;;71.50;26.90;;;2.20;99.90;;;;;;5097425;28;25063;-78
2023/02/10 06:46:18;;;;;;;63.53;26.13;;;2.20;99.90;;;;;;5097351;28;25051;-78
2023/02/10 06:48:46;;;;;;;65.72;26.20;;;2.20;99.90;;;;;;5097776;28;25094;-78
2023/02/10 06:51:14;;;;;;;70.22;28.02;;;2.20;99.90;;;;;;5079299;28;25075;-78
2023/02/10 06:53:42;;;;;;;73.43;29.25;;;2.30;99.90;;;;;;5097664;28;25128;-78
2023/02/10 06:56:10;;;;;;;61.38;26.00;;;2.20;99.90;;;;;;5097070;28;25106;-77
2023/02/10 06:58:38;;;;;;;62.80;28.23;;;2.30;99.90;;;;;;5097137;28;25049;-76
2023/02/10 07:01:16;;;;;;;68.45;29.30;;;2.30;99.90;;;;;;5097344;28;25066;-78
2023/02/10 07:03:44;;;;;;;67.93;27.95;;;2.30;99.90;;;;;;5097509;28;25059;-78
2023/02/10 07:06:11;;;;;;;72.20;29.80;;;2.40;99.90;;;;;;5097007;28;25098;-78
2023/02/10 07:08:39;;;;;;;55.97;25.33;;;2.30;99.90;;;;;;5096970;28;25095;-77
2023/02/10 07:11:07;;;;;;;67.18;28.27;;;2.40;99.90;;;;;;5097450;28;25149;-79
2023/02/10 07:13:34;;;;;;;67.10;28.15;;;2.40;99.90;;;;;;5097455;28;25083;-88
2023/02/10 07:16:02;;;;;;;78.25;30.27;;;2.40;99.90;;;;;;5097057;28;25055;-78
2023/02/10 07:18:29;;;;;;;69.90;28.02;;;2.40;99.90;;;;;;5078855;28;25052;-78
2023/02/10 07:20:57;;;;;;;70.50;28.15;;;2.50;99.90;;;;;;5078780;28;25066;-74
2023/02/10 07:23:24;;;;;;;68.10;29.27;;;2.50;99.90;;;;;;5096118;28;25066;-78
2023/02/10 07:25:52;;;;;;;79.95;31.80;;;2.50;99.90;;;;;;5096109;28;25064;-76
2023/02/10 07:28:19;;;;;;;65.32;29.27;;;2.50;99.90;;;;;;5096533;28;25072;-77
2023/02/10 07:30:47;;;;;;;65.78;26.23;;;2.40;99.90;;;;;;5078749;28;25158;-75
2023/02/10 07:33:14;;;;;;;65.72;28.70;;;2.50;99.90;;;;;;5075087;28;25083;-77
2023/02/10 07:35:42;;;;;;;71.93;29.38;;;2.50;99.90;;;;;;5075354;28;25103;-76
2023/02/10 07:38:09;;;;;;;81.32;31.73;;;2.50;99.90;;;;;;5076316;28;25121;-76
2023/02/10 07:40:36;;;;;;;81.40;29.25;;;2.50;99.90;;;;;;5075009;28;25125;-76
2023/02/10 07:43:03;;;;;;;66.80;24.52;;;2.50;99.90;;;;;;5075244;28;25050;-77
2023/02/10 07:45:31;;;;;;;61.83;25.42;;;2.50;99.90;;;;;;5075622;28;25070;-77
2023/02/10 07:47:59;;;;;;;67.90;26.42;;;2.60;99.90;;;;;;5075117;28;25046;-77
2023/02/10 07:50:26;;;;;;;72.20;26.65;;;2.60;99.90;;;;;;5076219;28;25069;-77
2023/02/10 07:52:53;;;;;;;66.60;27.92;;;2.60;99.90;;;;;;5075127;28;25048;-78
2023/02/10 07:55:21;;;;;;;74.72;31.10;;;2.60;99.90;;;;;;5075017;28;25074;-81
2023/02/10 07:57:48;;;;;;;74.60;28.65;;;2.60;99.90;;;;;;5076195;28;25081;-79
2023/02/10 08:00:15;;;;;;;86.45;32.22;;;2.60;99.90;;;;;;5075008;28;25143;-77
2023/02/10 08:02:43;;;;;;;71.75;27.77;;;2.60;99.90;;;;;;5075066;28;25111;-79
2023/02/10 08:05:10;;;;;;;74.88;28.33;;;2.60;99.90;;;;;;5074647;28;25063;-69
2023/02/10 08:07:37;;;;;;;72.68;29.77;;;2.60;99.90;;;;;;5076593;28;25066;-70
2023/02/10 08:10:05;;;;;;;78.93;28.63;;;2.70;99.90;;;;;;5076463;28;25116;-70
2023/02/10 08:12:32;;;;;;;83.22;29.38;;;2.70;99.90;;;;;;5074956;28;25401;-72
2023/02/10 08:15:00;;;;;;;66.78;27.88;;;2.70;99.90;;;;;;5074902;28;25143;-73
2023/02/10 08:17:28;;;;;;;85.78;30.30;;;2.70;99.90;;;;;;5075416;28;25063;-70
2023/02/10 08:19:55;;;;;;;83.57;29.90;;;2.70;99.90;;;;;;5076609;28;25060;-70
2023/02/10 08:22:22;;;;;;;73.72;29.40;;;2.70;99.90;;;;;;5076455;28;25080;-71
2023/02/10 08:24:50;;;;;;;68.13;28.80;;;2.70;99.90;;;;;;5075937;28;25096;-70
2023/02/10 08:27:17;;;;;;;87.57;29.88;;;2.80;99.90;;;;;;5075858;28;25078;-71
2023/02/10 08:29:45;;;;;;;72.88;28.70;;;2.80;99.90;;;;;;5074946;28;25051;-70
2023/02/10 08:32:18;;;;;;;84.82;29.90;;;2.90;99.90;;;;;;5084820;28;25113;-70
2023/02/10 08:34:48;;;;;;;93.57;32.85;;;2.90;99.90;;;;;;5096837;28;25125;-69
2023/02/10 08:37:17;;;;;;;71.95;29.00;;;3.00;99.90;;;;;;5100477;28;25129;-71
2023/02/10 08:39:44;;;;;;;63.45;26.42;;;3.00;99.90;;;;;;5081997;28;25103;-70
2023/02/10 08:42:12;;;;;;;69.38;29.17;;;3.10;99.90;;;;;;5099794;28;25060;-71
2023/02/10 08:44:39;;;;;;;71.60;26.80;;;3.20;99.90;;;;;;5081702;28;25048;-71
2023/02/10 08:47:10;;;;;;;72.60;25.92;;;3.10;99.90;;;;;;5100208;28;25071;-71
2023/02/10 08:49:39;;;;;;;75.80;28.13;;;3.20;99.90;;;;;;5100336;28;25098;-70
2023/02/10 08:52:06;;;;;;;73.10;28.30;;;3.10;99.90;;;;;;5081592;28;25103;-71
2023/02/10 08:54:33;;;;;;;82.72;27.15;;;3.10;99.90;;;;;;5081463;28;25071;-70
2023/02/10 08:57:01;;;;;;;72.03;27.17;;;3.10;99.90;;;;;;5099504;28;25060;-71
2023/02/10 08:59:28;;;;;;;77.15;30.50;;;3.10;99.90;;;;;;5100149;28;25081;-71
2023/02/10 09:01:56;;;;;;;81.18;31.40;;;3.10;99.90;;;;;;5081354;28;25124;-71
2023/02/10 09:04:24;;;;;;;74.85;27.27;;;3.10;99.90;;;;;;5099901;28;25109;-70
2023/02/10 09:06:52;;;;;;;68.40;28.02;;;3.10;99.90;;;;;;5081311;28;25069;-71
2023/02/10 09:09:24;;;;;;;67.50;26.25;;;3.10;99.90;;;;;;5081787;28;25157;-71
2023/02/10 09:11:53;;;;;;;60.33;25.15;;;3.20;99.90;;;;;;5099702;28;25114;-70
2023/02/10 09:14:20;;;;;;;57.13;22.48;;;3.20;99.90;;;;;;5099736;28;25073;-72
2023/02/10 09:16:48;;;;;;;61.13;24.75;;;3.20;99.90;;;;;;5099315;28;25081;-72
2023/02/10 09:19:15;;;;;;;51.72;21.42;;;3.20;99.90;;;;;;5099708;28;25081;-70
2023/02/10 09:21:43;;;;;;;58.60;22.83;;;3.20;99.90;;;;;;5098951;28;25068;-69
2023/02/10 09:24:10;;;;;;;71.38;25.63;;;3.30;99.90;;;;;;5081123;28;25068;-70
2023/02/10 09:26:38;;;;;;;54.05;23.52;;;3.30;99.90;;;;;;5098845;28;25106;-70
2023/02/10 09:29:07;;;;;;;63.63;24.38;;;3.30;99.90;;;;;;5098866;28;25069;-70
2023/02/10 09:31:35;;;;;;;52.55;19.65;;;3.30;99.90;;;;;;5098784;28;25080;-69
2023/02/10 09:34:03;;;;;;;61.80;23.55;;;3.40;99.90;;;;;;5098941;28;25064;-71
2023/02/10 09:36:31;;;;;;;60.92;23.52;;;3.40;99.90;;;;;;5099190;28;25075;-70
2023/02/10 09:38:58;;;;;;;67.35;22.88;;;3.40;99.90;;;;;;5099282;28;25078;-70
2023/02/10 09:41:35;;;;;;;64.10;24.98;;;3.40;99.90;;;;;;5099238;28;25053;-70
2023/02/10 09:44:22;;;;;;;59.85;23.98;;;3.50;99.90;;;;;;5080670;28;25078;-70
2023/02/10 09:47:25;;;;;;;57.90;21.38;;;3.50;99.90;;;;;;5097868;28;25054;-70
2023/02/10 09:50:20;;;;;;;58.47;20.92;;;3.60;99.90;;;;;;5080642;28;25050;-69
2023/02/10 09:53:20;;;;;;;66.38;25.17;;;3.60;99.90;;;;;;5080450;28;25098;-71
2023/02/10 09:56:04;;;;;;;63.10;23.63;;;3.60;99.90;;;;;;5080324;28;25116;-71
2023/02/10 09:58:44;;;;;;;60.17;22.92;;;3.60;99.90;;;;;;5098431;28;25130;-70
2023/02/10 10:01:35;;;;;;;66.70;23.25;;;3.50;99.90;;;;;;5098787;28;25119;-70
2023/02/10 10:04:10;;;;;;;54.60;19.60;;;3.50;99.90;;;;;;5080242;28;25054;-70
2023/02/10 10:06:49;;;;;;;60.95;22.27;;;3.60;99.90;;;;;;5098102;28;25072;-70
2023/02/10 10:09:39;;;;;;;59.67;22.00;;;3.60;99.90;;;;;;5098823;28;25080;-71
2023/02/10 10:12:17;;;;;;;62.28;23.63;;;3.60;99.90;;;;;;5080096;28;25062;-71
2023/02/10 10:14:44;;;;;;;57.53;21.83;;;3.70;99.90;;;;;;5079953;28;25098;-70
2023/02/10 10:17:39;;;;;;;53.25;21.50;;;3.70;99.90;;;;;;5097907;28;25067;-71
2023/02/10 10:20:30;;;;;;;55.20;21.70;;;3.90;99.90;;;;;;5098693;28;25110;-70
2023/02/10 10:23:16;;;;;;;62.72;22.83;;;4.00;99.90;;;;;;5098411;28;25082;-71
2023/02/10 10:25:49;;;;;;;;;;;4.00;99.90;;;;;;5098785;28;25060;-71
2023/02/10 10:28:45;;;;;;;58.33;22.45;;;4.10;99.90;;;;;;5098505;28;24080;-71
2023/02/10 10:31:17;;;;;;;51.33;21.98;;;4.20;99.90;;;;;;5097777;28;25121;-71
2023/02/10 10:34:12;;;;;;;55.22;23.80;;;4.20;99.90;;;;;;5097698;28;25110;-71
2023/02/10 10:36:54;;;;;;;57.33;22.95;;;4.30;99.90;;;;;;5098343;28;25074;-71
2023/02/10 10:39:27;;;;;;;48.72;22.88;;;4.40;99.90;;;;;;5079975;28;25106;-71
2023/02/10 10:41:57;;;;;;;50.85;21.20;;;4.40;99.90;;;;;;5098056;28;25122;-71
2023/02/10 10:44:26;;;;;;;50.92;22.23;;;4.40;99.90;;;;;;5079473;28;25061;-71
2023/02/10 10:47:21;;;;;;;55.22;24.48;;;4.50;99.90;;;;;;5079448;28;25076;-71
2023/02/10 10:49:49;;;;;;;48.90;19.85;;;4.60;99.90;;;;;;5079830;28;25122;-71
2023/02/10 10:52:35;;;;;;;45.25;19.15;;;4.70;99.90;;;;;;5097829;28;25059;-71
2023/02/10 10:55:24;;;;;;;49.00;21.60;;;4.70;99.90;;;;;;5097798;28;25058;-70
2023/02/10 10:57:54;;;;;;;45.92;19.45;;;4.70;99.90;;;;;;5096439;28;25076;-71
2023/02/10 11:00:25;;;;;;;53.75;21.98;;;4.80;99.90;;;;;;5079254;28;25126;-71
2023/02/10 11:03:04;;;;;;;51.83;21.27;;;4.80;99.90;;;;;;5097148;28;25122;-71
2023/02/10 11:05:38;;;;;;;42.35;19.90;;;4.80;99.90;;;;;;5097087;28;25065;-71
2023/02/10 11:08:23;;;;;;;51.33;20.65;;;4.80;99.90;;;;;;5079246;28;25097;-71
2023/02/10 11:10:57;;;;;;;44.60;18.92;;;4.80;99.90;;;;;;5096997;28;25074;-71
2023/02/10 11:13:28;;;;;;;43.67;19.33;;;4.90;99.90;;;;;;5097527;28;25127;-71
2023/02/10 11:16:16;;;;;;;42.60;20.88;;;4.90;99.90;;;;;;5096827;28;25071;-71
2023/02/10 11:18:54;;;;;;;47.45;20.13;;;4.90;99.90;;;;;;5097532;28;25090;-71
2023/02/10 11:21:34;;;;;;;39.45;17.20;;;5.00;99.90;;;;;;5096709;28;25125;-71
2023/02/10 11:24:01;;;;;;;44.85;20.15;;;5.00;99.90;;;;;;5097310;28;25076;-71
2023/02/10 11:26:28;;;;;;;46.75;20.20;;;5.00;99.90;;;;;;5097313;28;25111;-71
2023/02/10 11:29:13;;;;;;;37.00;16.50;;;5.00;99.90;;;;;;5097251;28;25098;-71
2023/02/10 11:31:41;;;;;;;43.50;20.52;;;5.10;99.90;;;;;;5096494;28;25091;-71
2023/02/10 11:34:45;;;;;;;48.25;18.33;;;5.00;99.90;;;;;;5097193;28;25053;-71
2023/02/10 11:37:22;;;;;;;46.40;19.50;;;5.00;99.90;;;;;;5034810;28;25053;-71
2023/02/10 11:39:49;;;;;;;36.45;17.10;;;5.00;99.90;;;;;;5089626;28;25060;-71
2023/02/10 11:42:30;;;;;;;33.53;15.00;;;5.10;99.90;;;;;;5097081;28;25115;-71
2023/02/10 11:45:09;;;;;;;30.38;14.52;;;5.00;99.90;;;;;;5097090;28;25056;-71
2023/02/10 11:47:37;;;;;;;32.72;15.45;;;5.00;99.90;;;;;;5078568;28;25079;-71
2023/02/10 11:50:27;;;;;;;41.92;18.05;;;4.90;99.90;;;;;;5097177;28;25054;-70
2023/02/10 11:52:55;;;;;;;38.45;16.45;;;4.80;99.90;;;;;;5078547;28;25093;-71
2023/02/10 11:55:42;;;;;;;31.10;15.93;;;4.80;99.90;;;;;;5078601;28;25110;-71
2023/02/10 11:59:01;;;;;;;45.92;18.05;;;4.90;99.90;;;;;;5096619;28;25071;-70
2023/02/10 12:01:49;;;;;;;34.45;13.50;;;4.80;99.90;;;;;;5096928;28;25127;-71
2023/02/10 12:04:38;;;;;;;35.55;15.07;;;4.90;99.90;;;;;;5096378;28;25078;-71
2023/02/10 12:07:27;;;;;;;40.30;16.05;;;5.00;99.90;;;;;;5096857;28;25060;-71
2023/02/10 12:10:17;;;;;;;42.20;16.48;;;5.10;99.90;;;;;;5098212;28;25105;-71
2023/02/10 12:12:58;;;;;;;33.25;14.57;;;5.20;99.90;;;;;;5100974;28;25127;-71
2023/02/10 12:15:48;;;;;;;37.13;16.60;;;5.20;99.90;;;;;;5100827;28;25075;-70
2023/02/10 12:18:42;;;;;;;35.60;15.68;;;5.20;99.90;;;;;;5082495;28;25062;-70
2023/02/10 12:21:43;;;;;;;32.50;15.45;;;5.20;99.90;;;;;;5100514;28;25073;-71
2023/02/10 12:24:58;;;;;;;35.47;15.25;;;5.30;99.90;;;;;;5100740;28;25075;-71
2023/02/10 12:27:48;;;;;;;37.63;15.32;;;5.40;99.90;;;;;;5066360;28;25073;-71
2023/02/10 12:30:40;;;;;;;34.92;16.23;;;5.50;99.90;;;;;;5100217;28;25054;-71
2023/02/10 12:33:44;;;;;;;32.03;13.98;;;5.60;99.90;;;;;;5099863;28;25119;-71
2023/02/10 12:36:19;;;;;;;29.85;14.35;;;5.70;99.90;;;;;;5099952;28;25088;-71
2023/02/10 12:38:46;;;;;;;35.47;13.63;;;5.80;99.90;;;;;;5100393;28;25082;-71
2023/02/10 12:41:28;;;;;;;30.38;13.30;;;6.00;99.90;;;;;;5099767;28;25071;-71
2023/02/10 12:44:13;;;;;;;34.45;14.00;;;6.10;99.90;;;;;;5100322;28;25073;-71
2023/02/10 12:47:14;;;;;;;23.75;11.30;;;6.10;99.90;;;;;;5081925;28;25147;-71
2023/02/10 12:50:13;;;;;;;24.75;13.02;;;6.10;99.90;;;;;;5100253;28;25066;-71
2023/02/10 12:52:54;;;;;;;27.23;10.45;;;6.20;99.90;;;;;;5100209;28;25123;-71
2023/02/10 12:55:36;;;;;;;28.30;13.25;;;6.20;99.90;;;;;;5099708;28;25064;-71
2023/02/10 12:58:17;;;;;;;26.98;11.55;;;6.10;99.90;;;;;;5100121;28;25063;-71
2023/02/10 13:01:06;;;;;;;25.25;11.45;;;6.00;99.90;;;;;;5099418;28;25072;-71
2023/02/10 13:03:37;;;;;;;30.20;11.90;;;6.00;99.90;;;;;;5099471;28;25073;-70
2023/02/10 13:06:34;;;;;;;25.55;11.82;;;6.00;99.90;;;;;;5099594;28;25063;-71
2023/02/10 13:09:26;;;;;;;28.50;11.35;;;6.10;99.90;;;;;;5099327;28;25068;-70
2023/02/10 13:12:13;;;;;;;29.55;11.75;;;6.10;99.90;;;;;;5099020;28;25136;-70